sensor_id;sensor_type;location;lat;lon;timestamp;pressure;altitude;pressure_sealevel;temperature
12007;BMP180;6062;47.294;12.182;2022-12-26T00:01:59;80564.00;;;7.30
12007;BMP180;6062;47.294;12.182;2022-12-26T00:04:26;80565.00;;;7.30
12007;BMP180;6062;47.294;12.182;2022-12-26T00:06:52;80573.00;;;7.30
12007;BMP180;6062;47.294;12.182;2022-12-26T00:09:17;80566.00;;;7.20
12007;BMP180;6062;47.294;12.182;2022-12-26T00:11:43;80574.00;;;7.20
12007;BMP180;6062;47.294;12.182;2022-12-26T00:14:14;80561.00;;;7.20
12007;BMP180;6062;47.294;12.182;2022-12-26T00:16:43;80569.00;;;7.20
12007;BMP180;6062;47.294;12.182;2022-12-26T00:19:09;80565.00;;;7.20
12007;BMP180;6062;47.294;12.182;2022-12-26T00:21:34;80568.00;;;7.10
12007;BMP180;6062;47.294;12.182;2022-12-26T00:24:01;80565.00;;;7.10
12007;BMP180;6062;47.294;12.182;2022-12-26T00:26:31;80562.00;;;7.10
12007;BMP180;6062;47.294;12.182;2022-12-26T00:28:57;80564.00;;;7.10
12007;BMP180;6062;47.294;12.182;2022-12-26T00:31:27;80550.00;;;7.10
12007;BMP180;6062;47.294;12.182;2022-12-26T00:33:53;80554.00;;;7.10
12007;BMP180;6062;47.294;12.182;2022-12-26T00:36:26;80545.00;;;7.10
12007;BMP180;6062;47.294;12.182;2022-12-26T00:38:53;80553.00;;;7.10
12007;BMP180;6062;47.294;12.182;2022-12-26T00:41:20;80555.00;;;7.10
12007;BMP180;6062;47.294;12.182;2022-12-26T00:43:46;80554.00;;;7.10
12007;BMP180;6062;47.294;12.182;2022-12-26T00:46:12;80556.00;;;7.10
12007;BMP180;6062;47.294;12.182;2022-12-26T00:48:38;80557.00;;;7.10
12007;BMP180;6062;47.294;12.182;2022-12-26T00:51:05;80556.00;;;7.10
12007;BMP180;6062;47.294;12.182;2022-12-26T00:53:31;80553.00;;;7.10
12007;BMP180;6062;47.294;12.182;2022-12-26T00:55:58;80555.00;;;7.10
12007;BMP180;6062;47.294;12.182;2022-12-26T00:58:24;80550.00;;;7.10
12007;BMP180;6062;47.294;12.182;2022-12-26T01:00:51;80553.00;;;7.10
12007;BMP180;6062;47.294;12.182;2022-12-26T01:03:17;80546.00;;;7.10
12007;BMP180;6062;47.294;12.182;2022-12-26T01:05:49;80553.00;;;7.10
12007;BMP180;6062;47.294;12.182;2022-12-26T01:08:17;80550.00;;;7.10
12007;BMP180;6062;47.294;12.182;2022-12-26T01:10:45;80555.00;;;7.10
12007;BMP180;6062;47.294;12.182;2022-12-26T01:13:10;80560.00;;;7.10
12007;BMP180;6062;47.294;12.182;2022-12-26T01:15:36;80555.00;;;7.20
12007;BMP180;6062;47.294;12.182;2022-12-26T01:18:02;80563.00;;;7.20
12007;BMP180;6062;47.294;12.182;2022-12-26T01:20:28;80567.00;;;7.30
12007;BMP180;6062;47.294;12.182;2022-12-26T01:22:55;80570.00;;;7.30
12007;BMP180;6062;47.294;12.182;2022-12-26T01:25:21;80565.00;;;7.30
12007;BMP180;6062;47.294;12.182;2022-12-26T01:27:47;80568.00;;;7.40
12007;BMP180;6062;47.294;12.182;2022-12-26T01:30:13;80567.00;;;7.40
12007;BMP180;6062;47.294;12.182;2022-12-26T01:32:38;80568.00;;;7.40
12007;BMP180;6062;47.294;12.182;2022-12-26T01:35:05;80569.00;;;7.40
12007;BMP180;6062;47.294;12.182;2022-12-26T01:37:30;80574.00;;;7.40
12007;BMP180;6062;47.294;12.182;2022-12-26T01:39:56;80572.00;;;7.40
12007;BMP180;6062;47.294;12.182;2022-12-26T01:42:25;80569.00;;;7.30
12007;BMP180;6062;47.294;12.182;2022-12-26T01:51:01;80575.00;;;7.00
12007;BMP180;6062;47.294;12.182;2022-12-26T01:53:31;80575.00;;;7.00
12007;BMP180;6062;47.294;12.182;2022-12-26T01:56:04;80583.00;;;7.00
12007;BMP180;6062;47.294;12.182;2022-12-26T01:58:39;80575.00;;;6.90
12007;BMP180;6062;47.294;12.182;2022-12-26T02:01:09;80580.00;;;6.90
12007;BMP180;6062;47.294;12.182;2022-12-26T02:03:40;80581.00;;;6.80
12007;BMP180;6062;47.294;12.182;2022-12-26T02:06:27;80589.00;;;6.80
12007;BMP180;6062;47.294;12.182;2022-12-26T02:08:53;80579.00;;;6.80
12007;BMP180;6062;47.294;12.182;2022-12-26T02:11:30;80580.00;;;6.70
12007;BMP180;6062;47.294;12.182;2022-12-26T02:13:57;80591.00;;;6.70
12007;BMP180;6062;47.294;12.182;2022-12-26T02:16:24;80573.00;;;6.70
12007;BMP180;6062;47.294;12.182;2022-12-26T02:18:50;80578.00;;;6.80
12007;BMP180;6062;47.294;12.182;2022-12-26T02:24:26;80573.00;;;6.90
12007;BMP180;6062;47.294;12.182;2022-12-26T02:33:30;80590.00;;;7.10
12007;BMP180;6062;47.294;12.182;2022-12-26T02:39:14;80588.00;;;7.20
12007;BMP180;6062;47.294;12.182;2022-12-26T02:45:03;80570.00;;;7.20
12007;BMP180;6062;47.294;12.182;2022-12-26T02:48:27;80575.00;;;7.20
12007;BMP180;6062;47.294;12.182;2022-12-26T02:54:08;80560.00;;;7.20
12007;BMP180;6062;47.294;12.182;2022-12-26T02:57:03;80576.00;;;7.20
12007;BMP180;6062;47.294;12.182;2022-12-26T03:00:01;80557.00;;;7.10
12007;BMP180;6062;47.294;12.182;2022-12-26T03:03:17;80569.00;;;7.10
12007;BMP180;6062;47.294;12.182;2022-12-26T03:06:10;80569.00;;;7.00
12007;BMP180;6062;47.294;12.182;2022-12-26T03:09:02;80564.00;;;7.00
12007;BMP180;6062;47.294;12.182;2022-12-26T03:11:53;80569.00;;;6.90
12007;BMP180;6062;47.294;12.182;2022-12-26T03:14:46;80570.00;;;6.90
12007;BMP180;6062;47.294;12.182;2022-12-26T03:17:27;80564.00;;;6.80
12007;BMP180;6062;47.294;12.182;2022-12-26T03:20:03;80574.00;;;6.80
12007;BMP180;6062;47.294;12.182;2022-12-26T03:22:59;80569.00;;;6.80
12007;BMP180;6062;47.294;12.182;2022-12-26T03:25:49;80579.00;;;6.70
12007;BMP180;6062;47.294;12.182;2022-12-26T03:28:35;80570.00;;;6.70
12007;BMP180;6062;47.294;12.182;2022-12-26T03:31:05;80569.00;;;6.70
12007;BMP180;6062;47.294;12.182;2022-12-26T03:33:41;80573.00;;;6.70
12007;BMP180;6062;47.294;12.182;2022-12-26T03:37:04;80564.00;;;6.70
12007;BMP180;6062;47.294;12.182;2022-12-26T03:40:28;80565.00;;;6.80
12007;BMP180;6062;47.294;12.182;2022-12-26T03:43:32;80565.00;;;6.80
12007;BMP180;6062;47.294;12.182;2022-12-26T03:46:48;80577.00;;;6.80
12007;BMP180;6062;47.294;12.182;2022-12-26T03:49:41;80558.00;;;6.90
12007;BMP180;6062;47.294;12.182;2022-12-26T03:52:49;80553.00;;;6.90
12007;BMP180;6062;47.294;12.182;2022-12-26T03:55:58;80563.00;;;6.90
12007;BMP180;6062;47.294;12.182;2022-12-26T03:59:11;80569.00;;;6.90
12007;BMP180;6062;47.294;12.182;2022-12-26T04:02:03;80564.00;;;6.90
12007;BMP180;6062;47.294;12.182;2022-12-26T04:04:53;80570.00;;;6.90
12007;BMP180;6062;47.294;12.182;2022-12-26T04:07:45;80564.00;;;6.90
12007;BMP180;6062;47.294;12.182;2022-12-26T04:10:38;80568.00;;;6.90
12007;BMP180;6062;47.294;12.182;2022-12-26T04:13:55;80572.00;;;6.90
12007;BMP180;6062;47.294;12.182;2022-12-26T04:17:28;80569.00;;;6.80
12007;BMP180;6062;47.294;12.182;2022-12-26T04:26:22;80563.00;;;6.50
12007;BMP180;6062;47.294;12.182;2022-12-26T04:29:07;80564.00;;;6.40
12007;BMP180;6062;47.294;12.182;2022-12-26T04:32:53;80565.00;;;6.40
12007;BMP180;6062;47.294;12.182;2022-12-26T04:35:44;80564.00;;;6.40
12007;BMP180;6062;47.294;12.182;2022-12-26T04:38:38;80558.00;;;6.40
12007;BMP180;6062;47.294;12.182;2022-12-26T04:41:27;80561.00;;;6.40
12007;BMP180;6062;47.294;12.182;2022-12-26T04:44:13;80559.00;;;6.40
12007;BMP180;6062;47.294;12.182;2022-12-26T04:46:45;80554.00;;;6.40
12007;BMP180;6062;47.294;12.182;2022-12-26T04:49:15;80555.00;;;6.40
12007;BMP180;6062;47.294;12.182;2022-12-26T04:52:04;80562.00;;;6.40
12007;BMP180;6062;47.294;12.182;2022-12-26T04:54:30;80549.00;;;6.40
12007;BMP180;6062;47.294;12.182;2022-12-26T04:56:56;80551.00;;;6.30
12007;BMP180;6062;47.294;12.182;2022-12-26T04:59:23;80547.00;;;6.30
12007;BMP180;6062;47.294;12.182;2022-12-26T05:01:49;80547.00;;;6.30
12007;BMP180;6062;47.294;12.182;2022-12-26T05:04:33;80549.00;;;6.30
12007;BMP180;6062;47.294;12.182;2022-12-26T05:07:26;80546.00;;;6.20
12007;BMP180;6062;47.294;12.182;2022-12-26T05:10:23;80545.00;;;6.20
12007;BMP180;6062;47.294;12.182;2022-12-26T05:12:50;80553.00;;;6.10
12007;BMP180;6062;47.294;12.182;2022-12-26T05:15:17;80539.00;;;6.10
12007;BMP180;6062;47.294;12.182;2022-12-26T05:17:43;80540.00;;;6.10
12007;BMP180;6062;47.294;12.182;2022-12-26T05:20:27;80543.00;;;6.10
12007;BMP180;6062;47.294;12.182;2022-12-26T05:22:57;80540.00;;;6.10
12007;BMP180;6062;47.294;12.182;2022-12-26T05:25:43;80546.00;;;6.00
12007;BMP180;6062;47.294;12.182;2022-12-26T05:28:28;80545.00;;;6.00
12007;BMP180;6062;47.294;12.182;2022-12-26T05:31:13;80542.00;;;6.00
12007;BMP180;6062;47.294;12.182;2022-12-26T05:33:39;80544.00;;;6.00
12007;BMP180;6062;47.294;12.182;2022-12-26T05:36:27;80545.00;;;6.00
12007;BMP180;6062;47.294;12.182;2022-12-26T05:38:54;80547.00;;;6.00
12007;BMP180;6062;47.294;12.182;2022-12-26T05:41:22;80545.00;;;6.00
12007;BMP180;6062;47.294;12.182;2022-12-26T05:43:48;80546.00;;;6.00
12007;BMP180;6062;47.294;12.182;2022-12-26T05:46:13;80542.00;;;6.00
12007;BMP180;6062;47.294;12.182;2022-12-26T05:48:39;80542.00;;;6.10
12007;BMP180;6062;47.294;12.182;2022-12-26T05:51:05;80539.00;;;6.00
12007;BMP180;6062;47.294;12.182;2022-12-26T05:53:33;80535.00;;;6.00
12007;BMP180;6062;47.294;12.182;2022-12-26T05:56:05;80530.00;;;6.00
12007;BMP180;6062;47.294;12.182;2022-12-26T05:58:31;80525.00;;;6.00
12007;BMP180;6062;47.294;12.182;2022-12-26T06:01:12;80533.00;;;6.00
12007;BMP180;6062;47.294;12.182;2022-12-26T06:03:38;80533.00;;;6.00
12007;BMP180;6062;47.294;12.182;2022-12-26T06:06:05;80531.00;;;6.00
12007;BMP180;6062;47.294;12.182;2022-12-26T06:08:32;80534.00;;;6.00
12007;BMP180;6062;47.294;12.182;2022-12-26T06:10:57;80534.00;;;6.00
12007;BMP180;6062;47.294;12.182;2022-12-26T06:13:23;80524.00;;;6.00
12007;BMP180;6062;47.294;12.182;2022-12-26T06:15:49;80526.00;;;6.00
12007;BMP180;6062;47.294;12.182;2022-12-26T06:18:15;80523.00;;;6.10
12007;BMP180;6062;47.294;12.182;2022-12-26T06:20:40;80514.00;;;6.10
12007;BMP180;6062;47.294;12.182;2022-12-26T06:23:06;80511.00;;;6.10
12007;BMP180;6062;47.294;12.182;2022-12-26T06:25:32;80516.00;;;6.10
12007;BMP180;6062;47.294;12.182;2022-12-26T06:27:58;80511.00;;;6.10
12007;BMP180;6062;47.294;12.182;2022-12-26T06:30:23;80510.00;;;6.10
12007;BMP180;6062;47.294;12.182;2022-12-26T06:32:49;80520.00;;;6.10
12007;BMP180;6062;47.294;12.182;2022-12-26T06:35:15;80522.00;;;6.10
12007;BMP180;6062;47.294;12.182;2022-12-26T06:37:40;80524.00;;;6.10
12007;BMP180;6062;47.294;12.182;2022-12-26T06:40:07;80516.00;;;6.00
12007;BMP180;6062;47.294;12.182;2022-12-26T06:42:33;80516.00;;;6.00
12007;BMP180;6062;47.294;12.182;2022-12-26T06:44:58;80533.00;;;6.10
12007;BMP180;6062;47.294;12.182;2022-12-26T06:47:24;80534.00;;;6.10
12007;BMP180;6062;47.294;12.182;2022-12-26T06:49:50;80533.00;;;6.10
12007;BMP180;6062;47.294;12.182;2022-12-26T06:52:15;80531.00;;;6.20
12007;BMP180;6062;47.294;12.182;2022-12-26T06:54:41;80531.00;;;6.20
12007;BMP180;6062;47.294;12.182;2022-12-26T06:57:07;80533.00;;;6.20
12007;BMP180;6062;47.294;12.182;2022-12-26T06:59:32;80540.00;;;6.20
12007;BMP180;6062;47.294;12.182;2022-12-26T07:01:58;80536.00;;;6.20
12007;BMP180;6062;47.294;12.182;2022-12-26T07:04:24;80539.00;;;6.20
12007;BMP180;6062;47.294;12.182;2022-12-26T07:06:50;80549.00;;;6.20
12007;BMP180;6062;47.294;12.182;2022-12-26T07:09:17;80539.00;;;6.20
12007;BMP180;6062;47.294;12.182;2022-12-26T07:11:47;80566.00;;;6.20
12007;BMP180;6062;47.294;12.182;2022-12-26T07:14:13;80554.00;;;6.20
12007;BMP180;6062;47.294;12.182;2022-12-26T07:16:41;80560.00;;;6.20
12007;BMP180;6062;47.294;12.182;2022-12-26T07:19:10;80562.00;;;6.20
12007;BMP180;6062;47.294;12.182;2022-12-26T07:21:37;80563.00;;;6.20
12007;BMP180;6062;47.294;12.182;2022-12-26T07:24:03;80563.00;;;6.20
12007;BMP180;6062;47.294;12.182;2022-12-26T07:26:29;80570.00;;;6.20
12007;BMP180;6062;47.294;12.182;2022-12-26T07:28:56;80575.00;;;6.20
12007;BMP180;6062;47.294;12.182;2022-12-26T07:31:23;80567.00;;;6.20
12007;BMP180;6062;47.294;12.182;2022-12-26T07:33:52;80565.00;;;6.30
12007;BMP180;6062;47.294;12.182;2022-12-26T07:36:19;80576.00;;;6.30
12007;BMP180;6062;47.294;12.182;2022-12-26T07:38:45;80566.00;;;6.30
12007;BMP180;6062;47.294;12.182;2022-12-26T07:41:12;80575.00;;;6.40
12007;BMP180;6062;47.294;12.182;2022-12-26T07:43:56;80579.00;;;6.40
12007;BMP180;6062;47.294;12.182;2022-12-26T07:46:22;80584.00;;;6.40
12007;BMP180;6062;47.294;12.182;2022-12-26T07:48:48;80582.00;;;6.40
12007;BMP180;6062;47.294;12.182;2022-12-26T07:51:14;80579.00;;;6.50
12007;BMP180;6062;47.294;12.182;2022-12-26T07:53:39;80582.00;;;6.50
12007;BMP180;6062;47.294;12.182;2022-12-26T07:56:06;80569.00;;;6.60
12007;BMP180;6062;47.294;12.182;2022-12-26T07:58:32;80578.00;;;6.70
12007;BMP180;6062;47.294;12.182;2022-12-26T08:01:03;80581.00;;;6.80
12007;BMP180;6062;47.294;12.182;2022-12-26T08:03:29;80579.00;;;6.90
12007;BMP180;6062;47.294;12.182;2022-12-26T08:05:55;80567.00;;;7.00
12007;BMP180;6062;47.294;12.182;2022-12-26T08:08:21;80581.00;;;7.10
12007;BMP180;6062;47.294;12.182;2022-12-26T08:10:47;80581.00;;;7.30
12007;BMP180;6062;47.294;12.182;2022-12-26T08:13:13;80577.00;;;7.40
12007;BMP180;6062;47.294;12.182;2022-12-26T08:15:40;80581.00;;;7.60
12007;BMP180;6062;47.294;12.182;2022-12-26T08:18:06;80578.00;;;7.80
12007;BMP180;6062;47.294;12.182;2022-12-26T08:20:32;80575.00;;;8.10
12007;BMP180;6062;47.294;12.182;2022-12-26T08:22:58;80580.00;;;8.40
12007;BMP180;6062;47.294;12.182;2022-12-26T08:25:24;80578.00;;;8.90
12007;BMP180;6062;47.294;12.182;2022-12-26T08:27:49;80595.00;;;9.40
12007;BMP180;6062;47.294;12.182;2022-12-26T08:30:15;80585.00;;;9.90
12007;BMP180;6062;47.294;12.182;2022-12-26T08:32:41;80588.00;;;10.30
12007;BMP180;6062;47.294;12.182;2022-12-26T08:35:07;80581.00;;;10.80
12007;BMP180;6062;47.294;12.182;2022-12-26T08:37:33;80594.00;;;11.30
12007;BMP180;6062;47.294;12.182;2022-12-26T08:39:59;80601.00;;;11.70
12007;BMP180;6062;47.294;12.182;2022-12-26T08:42:24;80593.00;;;12.10
12007;BMP180;6062;47.294;12.182;2022-12-26T08:44:50;80604.00;;;12.40
12007;BMP180;6062;47.294;12.182;2022-12-26T08:47:16;80602.00;;;12.70
12007;BMP180;6062;47.294;12.182;2022-12-26T08:49:42;80592.00;;;12.90
12007;BMP180;6062;47.294;12.182;2022-12-26T08:52:08;80595.00;;;13.10
12007;BMP180;6062;47.294;12.182;2022-12-26T08:54:34;80594.00;;;13.20
12007;BMP180;6062;47.294;12.182;2022-12-26T08:57:00;80602.00;;;13.40
12007;BMP180;6062;47.294;12.182;2022-12-26T08:59:25;80602.00;;;13.60
12007;BMP180;6062;47.294;12.182;2022-12-26T09:01:51;80595.00;;;13.80
12007;BMP180;6062;47.294;12.182;2022-12-26T09:04:17;80608.00;;;14.00
12007;BMP180;6062;47.294;12.182;2022-12-26T09:06:43;80605.00;;;14.20
12007;BMP180;6062;47.294;12.182;2022-12-26T09:09:10;80601.00;;;14.40
12007;BMP180;6062;47.294;12.182;2022-12-26T09:11:39;80604.00;;;14.50
12007;BMP180;6062;47.294;12.182;2022-12-26T09:14:05;80605.00;;;14.60
12007;BMP180;6062;47.294;12.182;2022-12-26T09:16:35;80599.00;;;14.60
12007;BMP180;6062;47.294;12.182;2022-12-26T09:19:04;80593.00;;;14.60
12007;BMP180;6062;47.294;12.182;2022-12-26T09:21:31;80606.00;;;14.70
12007;BMP180;6062;47.294;12.182;2022-12-26T09:24:05;80608.00;;;14.70
12007;BMP180;6062;47.294;12.182;2022-12-26T09:26:32;80603.00;;;14.80
12007;BMP180;6062;47.294;12.182;2022-12-26T09:28:58;80603.00;;;14.90
12007;BMP180;6062;47.294;12.182;2022-12-26T09:31:28;80607.00;;;15.00
12007;BMP180;6062;47.294;12.182;2022-12-26T09:33:54;80599.00;;;15.20
12007;BMP180;6062;47.294;12.182;2022-12-26T09:36:30;80610.00;;;15.50
12007;BMP180;6062;47.294;12.182;2022-12-26T09:38:57;80601.00;;;15.90
12007;BMP180;6062;47.294;12.182;2022-12-26T09:42:15;80589.00;;;16.60
12007;BMP180;6062;47.294;12.182;2022-12-26T09:50:31;80593.00;;;19.60
12007;BMP180;6062;47.294;12.182;2022-12-26T09:53:05;80590.00;;;20.60
12007;BMP180;6062;47.294;12.182;2022-12-26T09:55:41;80595.00;;;21.50
12007;BMP180;6062;47.294;12.182;2022-12-26T10:01:09;80591.00;;;22.80
12007;BMP180;6062;47.294;12.182;2022-12-26T10:03:47;80577.00;;;23.20
12007;BMP180;6062;47.294;12.182;2022-12-26T10:06:24;80583.00;;;23.40
12007;BMP180;6062;47.294;12.182;2022-12-26T10:14:47;80578.00;;;23.40
12007;BMP180;6062;47.294;12.182;2022-12-26T10:17:46;80582.00;;;23.60
12007;BMP180;6062;47.294;12.182;2022-12-26T10:20:32;80579.00;;;23.90
12007;BMP180;6062;47.294;12.182;2022-12-26T10:23:35;80570.00;;;24.30
12007;BMP180;6062;47.294;12.182;2022-12-26T10:31:53;80572.00;;;25.20
12007;BMP180;6062;47.294;12.182;2022-12-26T10:34:36;80576.00;;;25.50
12007;BMP180;6062;47.294;12.182;2022-12-26T10:37:10;80574.00;;;25.60
12007;BMP180;6062;47.294;12.182;2022-12-26T10:39:53;80584.00;;;25.50
12007;BMP180;6062;47.294;12.182;2022-12-26T10:42:30;80575.00;;;25.30
12007;BMP180;6062;47.294;12.182;2022-12-26T10:44:59;80575.00;;;25.00
12007;BMP180;6062;47.294;12.182;2022-12-26T10:47:39;80575.00;;;24.70
12007;BMP180;6062;47.294;12.182;2022-12-26T10:50:17;80574.00;;;24.40
12007;BMP180;6062;47.294;12.182;2022-12-26T10:52:43;80574.00;;;24.10
12007;BMP180;6062;47.294;12.182;2022-12-26T10:55:15;80567.00;;;23.80
12007;BMP180;6062;47.294;12.182;2022-12-26T10:57:45;80574.00;;;23.60
12007;BMP180;6062;47.294;12.182;2022-12-26T11:00:24;80578.00;;;23.50
12007;BMP180;6062;47.294;12.182;2022-12-26T11:03:22;80572.00;;;23.50
12007;BMP180;6062;47.294;12.182;2022-12-26T11:05:54;80569.00;;;23.70
12007;BMP180;6062;47.294;12.182;2022-12-26T11:08:46;80569.00;;;23.90
12007;BMP180;6062;47.294;12.182;2022-12-26T11:11:32;80565.00;;;24.10
12007;BMP180;6062;47.294;12.182;2022-12-26T11:17:10;80574.00;;;24.20
12007;BMP180;6062;47.294;12.182;2022-12-26T11:19:40;80579.00;;;24.30
12007;BMP180;6062;47.294;12.182;2022-12-26T11:22:27;80587.00;;;24.20
12007;BMP180;6062;47.294;12.182;2022-12-26T11:25:14;80590.00;;;24.10
12007;BMP180;6062;47.294;12.182;2022-12-26T11:27:47;80589.00;;;24.00
12007;BMP180;6062;47.294;12.182;2022-12-26T11:30:17;80578.00;;;23.90
12007;BMP180;6062;47.294;12.182;2022-12-26T11:32:47;80570.00;;;23.90
12007;BMP180;6062;47.294;12.182;2022-12-26T11:35:20;80573.00;;;23.80
12007;BMP180;6062;47.294;12.182;2022-12-26T11:37:52;80601.00;;;23.70
12007;BMP180;6062;47.294;12.182;2022-12-26T11:40:36;80586.00;;;23.80
12007;BMP180;6062;47.294;12.182;2022-12-26T11:43:12;80586.00;;;23.80
12007;BMP180;6062;47.294;12.182;2022-12-26T11:45:48;80587.00;;;23.80
12007;BMP180;6062;47.294;12.182;2022-12-26T11:48:23;80590.00;;;23.80
12007;BMP180;6062;47.294;12.182;2022-12-26T11:50:51;80581.00;;;23.60
12007;BMP180;6062;47.294;12.182;2022-12-26T11:53:21;80602.00;;;22.90
12007;BMP180;6062;47.294;12.182;2022-12-26T11:56:03;80579.00;;;22.20
12007;BMP180;6062;47.294;12.182;2022-12-26T11:58:31;80584.00;;;21.70
12007;BMP180;6062;47.294;12.182;2022-12-26T12:03:47;80566.00;;;21.10
12007;BMP180;6062;47.294;12.182;2022-12-26T12:07:00;80587.00;;;20.80
12007;BMP180;6062;47.294;12.182;2022-12-26T12:09:50;80576.00;;;20.60
12007;BMP180;6062;47.294;12.182;2022-12-26T12:12:58;80606.00;;;20.40
12007;BMP180;6062;47.294;12.182;2022-12-26T12:19:09;80577.00;;;20.10
12007;BMP180;6062;47.294;12.182;2022-12-26T12:21:45;80595.00;;;19.90
12007;BMP180;6062;47.294;12.182;2022-12-26T12:36:30;80561.00;;;19.70
12007;BMP180;6062;47.294;12.182;2022-12-26T12:39:18;80582.00;;;19.70
12007;BMP180;6062;47.294;12.182;2022-12-26T12:42:51;80568.00;;;19.50
12007;BMP180;6062;47.294;12.182;2022-12-26T12:45:27;80558.00;;;19.10
12007;BMP180;6062;47.294;12.182;2022-12-26T12:48:13;80569.00;;;18.80
12007;BMP180;6062;47.294;12.182;2022-12-26T12:51:32;80564.00;;;18.40
12007;BMP180;6062;47.294;12.182;2022-12-26T12:57:41;80559.00;;;17.60
12007;BMP180;6062;47.294;12.182;2022-12-26T13:00:29;80566.00;;;17.30
12007;BMP180;6062;47.294;12.182;2022-12-26T13:03:18;80555.00;;;17.00
12007;BMP180;6062;47.294;12.182;2022-12-26T13:06:12;80556.00;;;16.70
12007;BMP180;6062;47.294;12.182;2022-12-26T13:08:48;80564.00;;;16.40
12007;BMP180;6062;47.294;12.182;2022-12-26T13:11:25;80569.00;;;16.20
12007;BMP180;6062;47.294;12.182;2022-12-26T13:14:30;80576.00;;;15.90
12007;BMP180;6062;47.294;12.182;2022-12-26T13:17:06;80579.00;;;15.70
12007;BMP180;6062;47.294;12.182;2022-12-26T13:19:43;80575.00;;;15.50
12007;BMP180;6062;47.294;12.182;2022-12-26T13:22:16;80573.00;;;15.40
12007;BMP180;6062;47.294;12.182;2022-12-26T13:24:50;80577.00;;;15.20
12007;BMP180;6062;47.294;12.182;2022-12-26T13:27:27;80578.00;;;15.00
12007;BMP180;6062;47.294;12.182;2022-12-26T13:29:55;80583.00;;;14.90
12007;BMP180;6062;47.294;12.182;2022-12-26T13:32:28;80585.00;;;14.70
12007;BMP180;6062;47.294;12.182;2022-12-26T13:35:00;80590.00;;;14.60
12007;BMP180;6062;47.294;12.182;2022-12-26T13:40:18;80584.00;;;14.20
12007;BMP180;6062;47.294;12.182;2022-12-26T13:42:51;80582.00;;;14.10
12007;BMP180;6062;47.294;12.182;2022-12-26T13:45:54;80570.00;;;13.90
12007;BMP180;6062;47.294;12.182;2022-12-26T13:51:03;80576.00;;;13.60
12007;BMP180;6062;47.294;12.182;2022-12-26T13:53:33;80568.00;;;13.50
12007;BMP180;6062;47.294;12.182;2022-12-26T13:56:09;80577.00;;;13.40
12007;BMP180;6062;47.294;12.182;2022-12-26T13:59:16;80566.00;;;13.20
12007;BMP180;6062;47.294;12.182;2022-12-26T14:10:48;80555.00;;;12.60
12007;BMP180;6062;47.294;12.182;2022-12-26T14:16:33;80545.00;;;12.30
12007;BMP180;6062;47.294;12.182;2022-12-26T14:22:10;80564.00;;;12.00
12007;BMP180;6062;47.294;12.182;2022-12-26T14:24:54;80574.00;;;11.80
12007;BMP180;6062;47.294;12.182;2022-12-26T14:28:04;80560.00;;;11.60
12007;BMP180;6062;47.294;12.182;2022-12-26T14:31:17;80556.00;;;11.30
12007;BMP180;6062;47.294;12.182;2022-12-26T14:34:11;80535.00;;;11.10
12007;BMP180;6062;47.294;12.182;2022-12-26T14:37:21;80527.00;;;10.80
12007;BMP180;6062;47.294;12.182;2022-12-26T14:40:24;80533.00;;;10.60
12007;BMP180;6062;47.294;12.182;2022-12-26T14:43:08;80528.00;;;10.50
12007;BMP180;6062;47.294;12.182;2022-12-26T14:50:50;80555.00;;;10.20
12007;BMP180;6062;47.294;12.182;2022-12-26T14:58:44;80529.00;;;9.90
12007;BMP180;6062;47.294;12.182;2022-12-26T15:09:55;80511.00;;;9.60
12007;BMP180;6062;47.294;12.182;2022-12-26T15:22:41;80508.00;;;9.10
12007;BMP180;6062;47.294;12.182;2022-12-26T15:29:03;80512.00;;;9.00
12007;BMP180;6062;47.294;12.182;2022-12-26T15:45:21;80541.00;;;8.70
12007;BMP180;6062;47.294;12.182;2022-12-26T15:51:01;80532.00;;;8.30
12007;BMP180;6062;47.294;12.182;2022-12-26T16:01:51;80544.00;;;7.90
12007;BMP180;6062;47.294;12.182;2022-12-26T16:04:33;80530.00;;;7.80
12007;BMP180;6062;47.294;12.182;2022-12-26T16:07:29;80523.00;;;7.80
12007;BMP180;6062;47.294;12.182;2022-12-26T16:09:58;80507.00;;;7.70
12007;BMP180;6062;47.294;12.182;2022-12-26T16:12:33;80529.00;;;7.70
12007;BMP180;6062;47.294;12.182;2022-12-26T16:17:33;80521.00;;;7.60
12007;BMP180;6062;47.294;12.182;2022-12-26T16:19:58;80540.00;;;7.40
12007;BMP180;6062;47.294;12.182;2022-12-26T16:22:34;80538.00;;;7.30
12007;BMP180;6062;47.294;12.182;2022-12-26T16:25:17;80519.00;;;7.20
12007;BMP180;6062;47.294;12.182;2022-12-26T16:27:45;80533.00;;;7.10
12007;BMP180;6062;47.294;12.182;2022-12-26T16:30:18;80544.00;;;7.00
12007;BMP180;6062;47.294;12.182;2022-12-26T16:32:45;80528.00;;;7.00
12007;BMP180;6062;47.294;12.182;2022-12-26T16:35:33;80542.00;;;6.90
12007;BMP180;6062;47.294;12.182;2022-12-26T16:38:03;80541.00;;;6.90
12007;BMP180;6062;47.294;12.182;2022-12-26T16:40:43;80532.00;;;6.90
12007;BMP180;6062;47.294;12.182;2022-12-26T16:43:27;80513.00;;;6.90
12007;BMP180;6062;47.294;12.182;2022-12-26T16:45:59;80521.00;;;6.80
12007;BMP180;6062;47.294;12.182;2022-12-26T16:48:30;80522.00;;;6.70
12007;BMP180;6062;47.294;12.182;2022-12-26T16:51:04;80540.00;;;6.70
12007;BMP180;6062;47.294;12.182;2022-12-26T16:56:30;80519.00;;;6.70
12007;BMP180;6062;47.294;12.182;2022-12-26T16:59:16;80508.00;;;6.70
12007;BMP180;6062;47.294;12.182;2022-12-26T17:01:53;80503.00;;;6.70
12007;BMP180;6062;47.294;12.182;2022-12-26T17:04:23;80495.00;;;6.70
12007;BMP180;6062;47.294;12.182;2022-12-26T17:07:07;80511.00;;;6.70
12007;BMP180;6062;47.294;12.182;2022-12-26T17:09:48;80493.00;;;6.60
12007;BMP180;6062;47.294;12.182;2022-12-26T17:12:34;80491.00;;;6.60
12007;BMP180;6062;47.294;12.182;2022-12-26T17:15:04;80492.00;;;6.60
12007;BMP180;6062;47.294;12.182;2022-12-26T17:17:36;80478.00;;;6.60
12007;BMP180;6062;47.294;12.182;2022-12-26T17:22:51;80469.00;;;6.50
12007;BMP180;6062;47.294;12.182;2022-12-26T17:28:19;80474.00;;;6.50
12007;BMP180;6062;47.294;12.182;2022-12-26T17:30:46;80466.00;;;6.50
12007;BMP180;6062;47.294;12.182;2022-12-26T17:33:27;80442.00;;;6.50
12007;BMP180;6062;47.294;12.182;2022-12-26T17:36:03;80439.00;;;6.60
12007;BMP180;6062;47.294;12.182;2022-12-26T17:38:32;80440.00;;;6.60
12007;BMP180;6062;47.294;12.182;2022-12-26T17:41:03;80437.00;;;6.60
12007;BMP180;6062;47.294;12.182;2022-12-26T17:43:36;80423.00;;;6.60
12007;BMP180;6062;47.294;12.182;2022-12-26T17:46:04;80427.00;;;6.60
12007;BMP180;6062;47.294;12.182;2022-12-26T17:48:31;80412.00;;;6.60
12007;BMP180;6062;47.294;12.182;2022-12-26T17:51:00;80418.00;;;6.50
12007;BMP180;6062;47.294;12.182;2022-12-26T17:53:30;80421.00;;;6.50